ΕΜΥ, Εθνική Μετεωρολογική Υπηρεσία - Δελτία Καιρού, Προγνώσεις

ΑΕΡΟΝΑΥΤΙΛΙΑ

GREEK AIRPORTS CODES

LGPZ 122350Z 00000KT 8000 -TSRA FEW015CB SCT018TCU BKN020 11/10 Q1004=

EUROPEAN AIRPORTS CODES

LFPO 130000Z 21012KT 9999 -RA BKN010 BKN015 SCT016TCU 08/07Q0981 TEMPO 3000 RA BKN008 SCT014CB=